< < Back
Terminal Aerodrome Forecast


Current Version              Previous Versions:   1  2  3  4  5  6  7  8  9  

Terminal Aerodrome Forecast

905
FTUS42 KCAE 230800 AAB
TAFCAE
TAF AMD
KCAE 230858Z 2309/2406 04006KT P6SM VCSH SCT025 OVC110
      TEMPO 2309/2313 BKN025
     FM231700 05010G15KT P6SM OVC035
     FM240000 04007KT P6SM OVC050=



Latest METAR

203
SAUS80 KWBC 232000 RRA
MTRCAE
METAR KCAE 231956Z 05009KT 10SM SCT026 BKN060 OVC080 19/13 A3022 RMK AO2
SLP232 T01940133 $


USA.gov is the U.S. government's official web portal to all federal, state and local government web resources and services.